DW8761 Weather Reports


Display with metric or nautical units.
time (UTC)temp
F
wind
direction
speed
MPH
gust
MPH
rain 1hr
in
rain 24hr
in
rain mn
in
humidity
%
barometer
mb
20181212161510 44 150 4.0 8.0 0.00 0.89 0.00 94 1029.5
20181212160127 44 163 2.0 6.0 0.00 0.89 0.00 93 1029.1
20181212155531 44 148 2.0 7.0 0.00 0.89 0.00 93 1029.1
20181212155027 44 140 3.0 7.0 0.00 0.89 0.00 93 1029.0
20181212154626 44 124 3.0 9.0 0.00 0.89 0.00 93 1028.9
20181212154017 44 177 3.0 9.0 0.00 0.89 0.00 93 1028.8
20181212153505 44 171 3.0 8.0 0.00 0.89 0.00 93 1028.7
20181212153001 44 157 2.0 5.0 0.00 0.89 0.00 92 1028.8
20181212150541 45 94 0.0 3.0 0.00 0.89 0.00 91 1028.5
20181212150038 45 94 0.0 3.0 0.00 0.90 0.00 91 1028.4
20181212145510 46 94 0.0 3.0 0.00 0.90 0.00 91 1028.4
20181212145004 46 94 0.0 3.0 0.00 0.90 0.00 91 1028.3
20181212143100 47 340 0.0 2.0 0.00 0.90 0.00 91 1027.8
20181212142535 47 340 0.0 2.0 0.00 0.90 0.00 91 1027.6
20181212142033 48 340 0.0 3.0 0.00 0.90 0.00 91 1027.5
20181212141619 48 340 0.0 4.0 0.00 0.90 0.00 91 1027.4
20181212141015 48 306 1.0 5.0 0.00 0.90 0.00 91 1027.3
20181212140512 48 284 1.0 5.0 0.00 0.90 0.00 91 1027.2
20181212140052 48 324 1.0 7.0 0.00 0.92 0.00 91 1027.2
20181212135103 48 292 1.0 7.0 0.00 0.92 0.00 91 1027.0
20181212134613 48 326 2.0 9.0 0.00 0.92 0.00 91 1026.8
20181212134032 48 346 2.0 9.0 0.00 0.92 0.00 91 1026.8
20181212133519 48 281 1.0 8.0 0.00 0.92 0.00 91 1026.7
20181212133038 48 331 1.0 8.0 0.00 0.92 0.00 91 1026.6
20181212132514 48 344 2.0 10.0 0.00 0.92 0.00 91 1026.6
20181212132008 48 347 3.0 10.0 0.00 0.92 0.00 91 1026.6
20181212131504 48 339 3.0 9.0 0.00 0.92 0.00 91 1026.7
20181212125529 48 341 2.0 6.0 0.00 0.95 0.00 92 1026.3
20181212125020 48 320 1.0 10.0 0.00 0.95 0.00 92 1026.3
20181212124543 48 306 1.0 10.0 0.00 0.95 0.00 92 1026.2
20181212124011 47 315 2.0 7.0 0.00 0.95 0.00 92 1026.2
20181212123505 47 325 2.0 7.0 0.00 0.95 0.00 92 1026.1
20181212122048 48 331 2.0 8.0 0.00 0.95 0.00 91 1026.0
20181212121644 48 279 2.0 5.0 0.00 0.95 0.00 92 1026.0
20181212121037 48 288 2.0 6.0 0.00 0.95 0.00 92 1026.0
20181212120534 48 345 2.0 8.0 0.00 0.95 0.00 92 1026.0
20181212120040 48 343 2.0 8.0 0.00 0.97 0.00 91 1025.9
20181212115501 48 338 3.0 8.0 0.00 0.97 0.00 92 1025.9
20181212113214 48 355 3.0 10.0 0.00 0.97 0.00 92 1025.7
20181212112533 48 340 4.0 15.0 0.00 0.97 0.00 92 1025.6
20181212112030 48 313 5.0 15.0 0.00 0.97 0.00 92 1025.5
20181212111602 48 282 6.0 14.0 0.00 0.97 0.00 93 1025.4
20181212111024 48 340 7.0 14.0 0.00 0.97 0.00 93 1025.3
20181212110513 48 336 5.0 10.0 0.00 0.97 0.00 94 1025.3
20181212110014 48 317 3.0 9.0 0.00 1.00 0.00 94 1025.1
20181212104551 48 333 3.0 11.0 0.00 1.00 0.00 94 1024.7
20181212104031 48 339 5.0 11.0 0.00 1.00 0.00 94 1024.6
20181212103529 48 360 5.0 13.0 0.00 1.00 0.00 94 1024.5
20181212103033 48 9 6.0 13.0 0.00 1.00 0.00 94 1024.4
20181212102514 48 314 1.0 8.0 0.00 1.00 0.00 95 1024.2
20181212102005 48 266 2.0 7.0 0.00 1.00 0.00 95 1024.0
20181212100153 48 303 2.0 8.0 0.00 1.00 0.00 94 1023.6
20181212095519 48 333 3.0 8.0 0.00 1.03 0.00 94 1023.5
20181212095015 48 319 3.0 8.0 0.00 1.03 0.00 94 1023.5
20181212094528 47 327 3.0 8.0 0.00 1.03 0.00 94 1023.3
20181212094003 47 298 2.0 8.0 0.00 1.03 0.00 94 1023.2
20181212092546 47 340 4.0 16.0 0.00 1.03 0.00 94 1022.9
20181212092041 47 342 6.0 16.0 0.00 1.03 0.00 94 1022.8
20181212091558 48 355 5.0 13.0 0.00 1.03 0.00 94 1022.8
20181212091034 48 319 6.0 17.0 0.00 1.03 0.00 95 1022.7
20181212090530 48 294 4.0 11.0 0.00 1.03 0.00 95 1022.8
20181212090036 48 331 4.0 12.0 0.00 1.05 0.00 95 1022.7
20181212084652 47 336 5.0 11.0 0.00 1.05 0.00 96 1022.5
20181212084039 47 344 5.0 11.0 0.00 1.05 0.00 96 1022.5
20181212083533 47 319 5.0 11.0 0.00 1.05 0.00 96 1022.4
20181212083044 47 333 3.0 11.0 0.00 1.05 0.00 95 1022.3
20181212082524 47 277 3.0 11.0 0.00 1.05 0.00 96 1022.2
20181212082020 47 328 3.0 11.0 0.00 1.05 0.00 96 1022.0
20181212081518 47 330 4.0 11.0 0.00 1.05 0.00 96 1021.9
20181212081004 47 340 4.0 11.0 0.00 1.05 0.00 96 1021.8
20181212080135 47 321 5.0 15.0 0.00 1.05 1.05 96 1021.6
20181212075508 47 327 5.0 16.0 0.01 1.05 1.05 96 1021.4
20181212075004 47 338 6.0 16.0 0.02 1.05 1.05 96 1021.2
20181212074503 46 276 4.0 10.0 0.02 1.05 1.05 96 1021.0
20181212072039 46 317 2.0 10.0 0.02 1.05 1.05 96 1020.6
20181212071613 46 331 3.0 13.0 0.02 1.05 1.05 95 1020.4
20181212071033 46 309 4.0 13.0 0.02 1.05 1.05 95 1020.2
20181212070523 46 319 5.0 21.0 0.02 1.05 1.05 95 1020.0
20181212070055 47 345 8.0 21.0 0.01 1.04 1.04 94 1020.0
20181212064717 48 324 8.0 18.0 0.00 1.03 1.03 96 1019.3
20181212064043 48 314 7.0 16.0 0.00 1.03 1.03 96 1019.2
20181212063540 48 299 6.0 16.0 0.00 1.03 1.03 96 1019.0
20181212063222 48 290 6.0 13.0 0.00 1.03 1.03 96 1018.9
20181212062527 48 325 6.0 13.0 0.00 1.03 1.03 97 1018.8
20181212062023 47 5 6.0 13.0 0.00 1.03 1.03 97 1018.7
20181212061526 47 355 5.0 13.0 0.00 1.03 1.03 97 1018.5
20181212061007 47 317 5.0 13.0 0.01 1.03 1.03 96 1018.5
20181212060503 47 262 7.0 13.0 0.01 1.03 1.03 96 1018.3
20181212055558 47 289 3.0 14.0 0.02 1.03 1.03 97 1018.1
20181212055031 47 355 5.0 14.0 0.03 1.03 1.03 97 1017.8
20181212054556 47 319 6.0 13.0 0.04 1.03 1.03 97 1017.7
20181212054017 47 329 5.0 13.0 0.04 1.03 1.03 97 1017.6
20181212053514 47 289 6.0 18.0 0.04 1.03 1.03 97 1017.5
20181212053037 47 317 7.0 20.0 0.04 1.03 1.03 97 1017.4
20181212052508 47 286 8.0 20.0 0.04 1.03 1.03 97 1017.5
20181212052005 47 234 10.0 20.0 0.04 1.03 1.03 97 1017.2
20181212050132 48 298 7.0 18.0 0.03 1.02 1.02 96 1016.8
20181212045523 48 315 8.0 23.0 0.02 1.01 1.01 96 1016.6
20181212045020 48 308 10.0 23.0 0.00 0.99 1.00 96 1016.2
20181212044525 49 304 9.0 22.0 0.00 0.99 0.99 97 1016.2
20181212044004 49 238 7.0 18.0 0.00 0.99 0.99 97 1015.5
20181212043208 49 271 6.0 14.0 0.00 0.99 0.99 97 1015.4
20181212042546 49 279 5.0 14.0 0.00 0.99 0.99 97 1015.2
20181212042041 49 259 5.0 13.0 0.00 0.99 0.99 97 1015.1
20181212041621 49 275 5.0 13.0 0.00 0.99 0.99 97 1015.0
20181212041032 49 265 4.0 14.0 0.00 0.99 0.99 97 1014.9
20181212040526 49 265 5.0 14.0 0.00 0.99 0.99 97 1014.8
20181212040032 49 281 3.0 9.0 0.00 0.99 0.99 98 1014.8
20181212033218 48 325 3.0 10.0 0.00 0.99 0.99 98 1014.6
20181212032536 48 326 4.0 10.0 0.00 0.99 0.99 98 1014.5
20181212032032 48 269 5.0 11.0 0.00 0.99 0.99 97 1014.5
20181212031605 48 323 3.0 11.0 0.00 0.99 0.99 97 1014.3
20181212031021 48 270 3.0 10.0 0.00 0.99 0.99 98 1014.2
20181212030513 48 280 2.0 9.0 0.00 0.99 0.99 97 1014.1
20181212030015 48 327 3.0 10.0 0.00 0.99 0.99 97 1013.9
20181212025547 48 336 3.0 10.0 0.00 0.99 0.99 97 1013.8
20181212025042 48 338 3.0 13.0 0.00 0.99 0.99 97 1013.9
20181212024611 48 355 4.0 13.0 0.02 0.99 0.99 97 1013.7
20181212024041 48 346 5.0 14.0 0.04 0.99 0.99 98 1013.6
20181212023536 48 317 6.0 14.0 0.04 0.99 0.99 97 1013.2
20181212023111 48 306 6.0 12.0 0.04 0.99 0.99 98 1013.1
20181212022525 48 302 5.0 17.0 0.04 0.99 0.99 97 1013.2
20181212022015 48 328 10.0 18.0 0.05 0.99 0.99 97 1013.0
20181212021533 49 348 9.0 24.0 0.06 0.99 0.99 97 1013.1
20181212021007 49 299 10.0 25.0 0.07 0.99 0.99 98 1013.2
20181212020503 49 315 11.0 26.0 0.07 0.99 0.99 98 1012.9
20181212015536 49 315 10.0 24.0 0.08 0.99 0.99 97 1012.8
20181212015034 51 331 11.0 24.0 0.08 0.99 0.99 98 1012.7
20181212014628 51 250 8.0 16.0 0.07 0.97 0.97 98 1012.7
20181212014027 50 279 5.0 12.0 0.06 0.95 0.95 98 1012.4
20181212013525 50 263 4.0 11.0 0.11 0.95 0.95 98 1012.4
20181212013054 50 286 4.0 11.0 0.14 0.95 0.95 98 1012.4
20181212012516 50 250 4.0 13.0 0.21 0.95 0.95 98 1012.2
20181212012015 50 270 5.0 13.0 0.23 0.94 0.94 97 1012.3
20181212010547 50 304 6.0 14.0 0.27 0.92 0.92 98 1012.4
20181212010130 50 257 5.0 14.0 0.28 0.91 0.91 98 1012.4
20181212005526 50 281 5.0 14.0 0.28 0.91 0.91 98 1012.3
20181212005023 50 279 4.0 12.0 0.28 0.91 0.91 98 1012.2
20181212004523 50 289 4.0 12.0 0.31 0.90 0.90 98 1012.2
20181212004008 50 301 4.0 15.0 0.30 0.87 0.88 97 1012.3
20181212003502 50 268 8.0 22.0 0.26 0.83 0.83 97 1012.4
20181212001057 52 267 5.0 18.0 0.13 0.68 0.68 98 1011.7
20181212000533 52 208 9.0 18.0 0.10 0.65 0.65 98 1011.5
20181212000109 52 182 6.0 21.0 0.08 0.63 0.63 98 1011.5
20181211235503 52 205 7.0 21.0 0.07 0.62 0.62 97 1011.4
20181211233201 53 242 9.0 22.0 0.08 0.56 0.56 97 1011.8
20181211232531 53 246 9.0 22.0 0.10 0.56 0.56 97 1011.9
20181211232026 53 180 8.0 22.0 0.10 0.56 0.56 98 1011.8
20181211231605 53 198 8.0 24.0 0.11 0.55 0.56 98 1011.8
20181211231014 53 182 10.0 21.0 0.12 0.55 0.55 98 1011.8
20181211230508 53 233 7.0 21.0 0.13 0.55 0.55 98 1012.0
20181211225537 53 202 8.0 21.0 0.14 0.55 0.55 98 1011.7
20181211225033 52 200 8.0 23.0 0.15 0.54 0.54 98 1012.3
20181211224547 52 199 10.0 18.0 0.16 0.53 0.53 98 1012.5
20181211224023 52 211 7.0 21.0 0.17 0.52 0.52 97 1012.5
20181211223515 52 187 7.0 21.0 0.17 0.50 0.50 97 1012.5
20181211223029 52 150 7.0 18.0 0.18 0.49 0.49 97 1012.5
20181211222503 52 236 7.0 23.0 0.17 0.47 0.47 97 1012.6
20181211220546 52 186 8.0 22.0 0.15 0.42 0.43 97 1013.0
20181211220135 52 182 9.0 24.0 0.14 0.41 0.42 97 1013.0
20181211215512 52 254 11.0 24.0 0.15 0.40 0.40 97 1013.3
20181211215009 52 143 9.0 21.0 0.14 0.39 0.39 97 1013.6
20181211214505 52 217 4.0 19.0 0.13 0.37 0.37 97 1013.7
20181211214001 52 183 7.0 27.0 0.11 0.35 0.35 97 1013.5
20181211211714 51 311 9.0 26.0 0.10 0.28 0.28 97 1013.7
20181211211057 51 216 8.0 18.0 0.10 0.28 0.28 97 1013.8
20181211210533 51 300 7.0 23.0 0.09 0.27 0.27 97 1014.0
20181211210035 51 177 6.0 23.0 0.09 0.26 0.27 97 1014.1
20181211205507 51 174 8.0 21.0 0.08 0.25 0.25 97 1014.3
20181211203128 51 171 9.0 20.0 0.06 0.23 0.23 97 1015.2
20181211202534 51 196 8.0 30.0 0.04 0.21 0.22 97 1015.0
20181211202030 51 184 8.0 17.0 0.03 0.20 0.20 97 1015.2
20181211201535 51 257 5.0 19.0 0.02 0.19 0.19 97 1015.2
20181211201021 51 188 7.0 20.0 0.01 0.18 0.18 97 1015.4
20181211200513 51 181 6.0 20.0 0.01 0.18 0.18 97 1015.5
20181211200013 51 169 4.0 29.0 0.00 0.17 0.17 96 1015.6
20181211194628 51 227 8.0 19.0 0.00 0.17 0.17 96 1015.7
20181211194029 51 169 7.0 25.0 0.00 0.17 0.17 96 1015.7
20181211193527 50 167 9.0 25.0 0.01 0.17 0.17 96 1015.7
20181211193057 50 184 8.0 23.0 0.01 0.17 0.17 96 1015.9
20181211192515 50 188 10.0 23.0 0.01 0.17 0.17 96 1016.0
20181211192009 50 174 7.0 23.0 0.01 0.17 0.17 97 1015.7
20181211190546 50 225 10.0 25.0 0.01 0.17 0.17 96 1016.7
20181211190113 50 205 7.0 26.0 0.01 0.18 0.17 96 1016.7
20181211185522 50 127 7.0 26.0 0.01 0.18 0.17 96 1016.9
20181211185009 50 259 9.0 24.0 0.01 0.18 0.17 96 1017.2
20181211184510 50 172 7.0 21.0 0.01 0.18 0.17 96 1017.4
20181211182102 50 281 5.0 30.0 0.00 0.17 0.16 96 1017.2
20181211181640 50 198 6.0 24.0 0.00 0.17 0.16 96 1017.1
20181211181031 49 249 6.0 22.0 0.00 0.17 0.16 96 1017.3
20181211180525 49 190 5.0 22.0 0.00 0.17 0.16 96 1017.3
20181211180035 49 157 9.0 22.0 0.00 0.17 0.16 96 1017.4
20181211174035 49 192 9.0 23.0 0.00 0.17 0.16 96 1016.9
20181211173527 49 161 6.0 22.0 0.00 0.17 0.16 96 1017.3
20181211173041 49 164 7.0 19.0 0.00 0.17 0.16 96 1017.3
20181211172515 49 232 10.0 23.0 0.00 0.17 0.16 96 1017.1
20181211172010 49 177 9.0 21.0 0.00 0.17 0.16 96 1017.3
20181211171511 49 202 8.0 25.0 0.00 0.17 0.16 97 1017.1
20181211171003 49 213 7.0 24.0 0.00 0.17 0.16 97 1017.1
20181211165533 48 159 6.0 23.0 0.00 0.17 0.16 97 1017.0
20181211165031 48 151 8.0 23.0 0.00 0.17 0.16 97 1017.3
20181211164615 48 169 7.0 20.0 0.00 0.17 0.16 97 1017.2
20181211164019 48 165 8.0 17.0 0.00 0.17 0.16 97 1017.5
20181211163515 48 169 8.0 17.0 0.00 0.17 0.16 97 1017.4
20181211163014 48 173 6.0 25.0 0.00 0.17 0.16 97 1017.5
20181211162503 48 121 8.0 21.0 0.00 0.17 0.16 97 1017.7